createdAt,value
2017-12-01T00:01:33.151Z,96672
2017-12-01T00:04:01.450Z,96675
2017-12-01T00:06:29.679Z,96677
2017-12-01T00:08:57.889Z,96681
2017-12-01T00:11:26.206Z,96679
2017-12-01T00:13:55.229Z,96685
2017-12-01T00:16:23.508Z,96690
2017-12-01T00:18:51.743Z,96696
2017-12-01T00:21:20.006Z,96693
2017-12-01T00:23:48.245Z,96696
2017-12-01T00:26:16.529Z,96696
2017-12-01T00:28:44.807Z,96696
2017-12-01T00:31:13.156Z,96698
2017-12-01T00:33:41.374Z,96697
2017-12-01T00:36:09.603Z,96701
2017-12-01T00:38:37.821Z,96704
2017-12-01T00:41:06.131Z,96704
2017-12-01T00:43:35.162Z,96703
2017-12-01T00:46:03.382Z,96700
2017-12-01T00:48:31.640Z,96700
2017-12-01T00:50:59.860Z,96702
2017-12-01T00:53:28.889Z,96709
2017-12-01T00:55:57.150Z,96710
2017-12-01T00:58:25.379Z,96714
2017-12-01T01:00:53.698Z,96717
2017-12-01T01:03:22.737Z,96715
2017-12-01T01:05:50.997Z,96717
2017-12-01T01:08:19.257Z,96715
2017-12-01T01:10:47.518Z,96716
2017-12-01T01:13:16.595Z,96723
2017-12-01T01:15:44.894Z,96730
2017-12-01T01:18:13.994Z,96727
2017-12-01T01:20:42.235Z,96730
2017-12-01T01:23:10.524Z,96727
2017-12-01T01:25:39.553Z,96732
2017-12-01T01:28:07.794Z,96733
2017-12-01T01:30:36.792Z,96734
2017-12-01T01:33:05.812Z,96737
2017-12-01T01:35:34.063Z,96735
2017-12-01T01:38:03.199Z,96738
2017-12-01T01:40:31.475Z,96737
2017-12-01T01:42:59.711Z,96731
2017-12-01T01:45:28.769Z,96732
2017-12-01T01:47:57.023Z,96732
2017-12-01T01:50:25.367Z,96730
2017-12-01T01:52:54.469Z,96735
2017-12-01T01:55:23.507Z,96734
2017-12-01T01:57:51.785Z,96731
2017-12-01T02:00:20.059Z,96727
2017-12-01T02:02:48.307Z,96728
2017-12-01T02:05:16.585Z,96724
2017-12-01T02:07:44.866Z,96720
2017-12-01T02:10:13.123Z,96730
2017-12-01T02:12:42.245Z,96727
2017-12-01T02:15:10.542Z,96734
2017-12-01T02:17:38.816Z,96731
2017-12-01T02:20:07.222Z,96730
2017-12-01T02:22:35.482Z,96733
2017-12-01T02:25:03.780Z,96735
2017-12-01T02:27:32.016Z,96741
2017-12-01T02:30:00.498Z,96736
2017-12-01T02:32:28.780Z,96737
2017-12-01T02:34:57.037Z,96732
2017-12-01T02:37:25.437Z,96731
2017-12-01T02:39:53.797Z,96732
2017-12-01T02:42:22.197Z,96736
2017-12-01T02:44:50.504Z,96739
2017-12-01T02:47:18.852Z,96736
2017-12-01T02:49:49.015Z,96739
2017-12-01T02:52:17.396Z,96743
2017-12-01T02:54:50.174Z,96748
2017-12-01T02:57:18.655Z,96751
2017-12-01T02:59:46.976Z,96749
2017-12-01T03:02:15.252Z,96749
2017-12-01T03:04:43.571Z,96761
2017-12-01T03:07:11.872Z,96764
2017-12-01T03:09:40.931Z,96768
2017-12-01T03:12:09.310Z,96773
2017-12-01T03:14:37.630Z,96776
2017-12-01T03:17:06.669Z,96772
2017-12-01T03:19:35.008Z,96768
2017-12-01T03:22:04.068Z,96777
2017-12-01T03:24:32.388Z,96779
2017-12-01T03:27:01.589Z,96778
2017-12-01T03:29:30.573Z,96784
2017-12-01T03:31:59.606Z,96785
2017-12-01T03:34:27.879Z,96787
2017-12-01T03:36:56.226Z,96792
2017-12-01T03:39:25.284Z,96782
2017-12-01T03:41:53.703Z,96787
2017-12-01T03:44:22.823Z,96789
2017-12-01T03:46:51.264Z,96799
2017-12-01T03:49:19.603Z,96803
2017-12-01T03:51:47.968Z,96813
2017-12-01T03:54:16.382Z,96808
2017-12-01T03:56:44.662Z,96809
2017-12-01T03:59:13.004Z,96816
2017-12-01T04:01:41.240Z,96815
2017-12-01T04:04:10.339Z,96813
2017-12-01T04:06:39.459Z,96818
2017-12-01T04:09:07.759Z,96827
2017-12-01T04:11:36.016Z,96830
2017-12-01T04:14:04.337Z,96831
2017-12-01T04:16:33.616Z,96838
2017-12-01T04:19:01.958Z,96839
2017-12-01T04:21:31.082Z,96836
2017-12-01T04:23:59.415Z,96835
2017-12-01T04:26:27.687Z,96836
2017-12-01T04:28:55.964Z,96835
2017-12-01T04:31:24.993Z,96839
2017-12-01T04:33:53.292Z,96840
2017-12-01T04:36:21.573Z,96848
2017-12-01T04:38:50.112Z,96849
2017-12-01T04:41:19.211Z,96851
2017-12-01T04:43:48.214Z,96859
2017-12-01T04:46:17.392Z,96866
2017-12-01T04:48:46.430Z,96872
2017-12-01T04:51:14.750Z,96872
2017-12-01T04:53:43.053Z,96867
2017-12-01T04:56:12.089Z,96867
2017-12-01T04:58:40.352Z,96867
2017-12-01T05:01:08.608Z,96867
2017-12-01T05:03:36.847Z,96872
2017-12-01T05:06:05.108Z,96873
2017-12-01T05:08:34.826Z,96875
2017-12-01T05:11:03.080Z,96875
2017-12-01T05:13:31.405Z,96878
2017-12-01T05:15:59.604Z,96888
2017-12-01T05:18:27.883Z,96890
2017-12-01T05:20:56.107Z,96893
2017-12-01T05:23:24.350Z,96898
2017-12-01T05:25:52.784Z,96902
2017-12-01T05:28:21.923Z,96901
2017-12-01T05:30:50.308Z,96909
2017-12-01T05:33:18.636Z,96909
2017-12-01T05:35:47.043Z,96903
2017-12-01T05:38:15.408Z,96912
2017-12-01T05:40:44.420Z,96908
2017-12-01T07:05:10.346Z,97036
2017-12-01T07:07:38.506Z,97040
2017-12-01T07:10:06.686Z,97047
2017-12-01T07:12:34.862Z,97053
2017-12-01T07:15:03.041Z,97055
2017-12-01T07:17:31.247Z,97065
2017-12-01T07:19:59.441Z,97064
2017-12-01T07:22:28.371Z,97065
2017-12-01T07:24:56.559Z,97064
2017-12-01T07:27:24.736Z,97057
2017-12-01T07:29:52.904Z,97058
2017-12-01T07:32:21.081Z,97059
2017-12-01T07:34:49.282Z,97059
2017-12-01T07:37:17.438Z,97063
2017-12-01T07:39:45.631Z,97060
2017-12-01T07:42:13.846Z,97064
2017-12-01T07:44:44.933Z,97070
2017-12-01T07:47:13.650Z,97076
2017-12-01T07:49:41.831Z,97081
2017-12-01T07:52:10.778Z,97077
2017-12-01T07:54:39.014Z,97084
2017-12-01T07:57:08.052Z,97081
2017-12-01T07:59:36.247Z,97081
2017-12-01T08:02:04.426Z,97084
2017-12-01T08:04:32.675Z,97088
2017-12-01T08:07:00.958Z,97084
2017-12-01T08:09:29.143Z,97096
2017-12-01T08:11:57.400Z,97094
2017-12-01T08:14:25.646Z,97091
2017-12-01T08:17:11.715Z,97091
2017-12-01T08:19:39.942Z,97097
2017-12-01T08:22:25.925Z,97107
2017-12-01T08:25:11.902Z,97100
2017-12-01T08:27:40.101Z,97104
2017-12-01T08:30:08.366Z,97109
2017-12-01T08:32:36.620Z,97114
2017-12-01T08:35:05.567Z,97119
2017-12-01T08:37:33.765Z,97120
2017-12-01T08:40:01.938Z,97121
2017-12-01T08:42:30.136Z,97129
2017-12-01T08:44:59.113Z,97133
2017-12-01T08:47:27.297Z,97127
2017-12-01T08:49:56.278Z,97128
2017-12-01T08:52:24.506Z,97134
2017-12-01T08:54:52.696Z,97140
2017-12-01T08:57:20.941Z,97145
2017-12-01T08:59:49.117Z,97147
2017-12-01T09:02:17.313Z,97158
2017-12-01T09:04:45.497Z,97155
2017-12-01T09:07:13.699Z,97161
2017-12-01T09:09:41.901Z,97157
2017-12-01T09:12:10.850Z,97162
2017-12-01T09:14:39.005Z,97161
2017-12-01T09:17:07.193Z,97144
2017-12-01T09:19:35.419Z,97148
2017-12-01T09:22:04.438Z,97147
2017-12-01T09:24:32.758Z,97147
2017-12-01T09:27:00.998Z,97141
2017-12-01T09:29:29.229Z,97146
2017-12-01T09:31:58.200Z,97147
2017-12-01T09:34:26.442Z,97146
2017-12-01T09:36:54.651Z,97146
2017-12-01T09:39:22.827Z,97148
2017-12-01T09:41:51.046Z,97155
2017-12-01T09:44:19.320Z,97158
2017-12-01T09:46:47.506Z,97153
2017-12-01T09:49:15.718Z,97151
2017-12-01T09:51:43.949Z,97155
2017-12-01T09:54:12.161Z,97153
2017-12-01T09:56:40.484Z,97161
2017-12-01T09:59:09.485Z,97161
2017-12-01T10:01:38.446Z,97157
2017-12-01T10:04:06.627Z,97154
2017-12-01T10:06:34.844Z,97156
2017-12-01T10:09:03.060Z,97150
2017-12-01T10:11:32.009Z,97148
2017-12-01T10:14:00.274Z,97139
2017-12-01T10:16:29.260Z,97138
2017-12-01T10:18:58.198Z,97132
2017-12-01T10:21:26.418Z,97133
2017-12-01T10:23:54.639Z,97131
2017-12-01T10:26:22.824Z,97131
2017-12-01T10:28:51.006Z,97126
2017-12-01T10:31:19.215Z,97135
2017-12-01T10:33:47.407Z,97142
2017-12-01T10:36:16.399Z,97147
2017-12-01T10:38:45.375Z,97143
2017-12-01T10:41:13.574Z,97139
2017-12-01T10:43:42.576Z,97137
2017-12-01T10:46:10.815Z,97138
2017-12-01T10:48:39.088Z,97142
2017-12-01T10:51:07.301Z,97139
2017-12-01T10:53:35.511Z,97147
2017-12-01T10:56:04.051Z,97151
2017-12-01T10:58:33.006Z,97145
2017-12-01T11:01:01.189Z,97149
2017-12-01T11:03:30.231Z,97148
2017-12-01T11:05:58.450Z,97155
2017-12-01T11:08:26.651Z,97156
2017-12-01T11:10:55.602Z,97157
2017-12-01T11:13:23.806Z,97164
2017-12-01T11:15:52.027Z,97164
2017-12-01T11:18:20.269Z,97161
2017-12-01T11:20:49.225Z,97171
2017-12-01T11:23:17.397Z,97171
2017-12-01T11:25:45.600Z,97175
2017-12-01T11:28:14.606Z,97170
2017-12-01T11:30:43.554Z,97165
2017-12-01T11:33:11.764Z,97164
2017-12-01T11:35:40.745Z,97167
2017-12-01T11:38:08.942Z,97168
2017-12-01T11:40:37.903Z,97175
2017-12-01T11:43:06.186Z,97176
2017-12-01T11:45:34.413Z,97176
2017-12-01T11:48:02.620Z,97176
2017-12-01T11:50:30.800Z,97174
2017-12-01T11:52:59.018Z,97168
2017-12-01T11:55:28.050Z,97179
2017-12-01T11:57:56.300Z,97182
2017-12-01T12:00:25.326Z,97181
2017-12-01T12:02:53.508Z,97183
2017-12-01T12:05:21.707Z,97179
2017-12-01T12:07:49.896Z,97173
2017-12-01T12:10:18.092Z,97174
2017-12-01T12:12:47.035Z,97174
2017-12-01T12:15:15.202Z,97175
2017-12-01T12:17:43.442Z,97177
2017-12-01T12:20:11.628Z,97178
2017-12-01T12:22:39.908Z,97179
2017-12-01T12:25:08.145Z,97176
2017-12-01T12:27:36.336Z,97183
2017-12-01T12:30:05.284Z,97185
2017-12-01T12:32:34.243Z,97178
2017-12-01T12:35:02.480Z,97174
2017-12-01T12:37:30.653Z,97186
2017-12-01T12:39:58.844Z,97186
2017-12-01T12:42:27.804Z,97186
2017-12-01T12:44:56.068Z,97189
2017-12-01T12:47:24.307Z,97196
2017-12-01T12:49:52.540Z,97194
2017-12-01T12:52:20.807Z,97193
2017-12-01T12:54:49.014Z,97190
2017-12-01T12:57:17.987Z,97187
2017-12-01T12:59:46.187Z,97189
2017-12-01T13:02:15.144Z,97182
2017-12-01T13:04:43.424Z,97181
2017-12-01T13:07:11.804Z,97184
2017-12-01T13:09:40.202Z,97184
2017-12-01T13:12:09.283Z,97187
2017-12-01T13:14:37.504Z,97192
2017-12-01T13:17:05.715Z,97198
2017-12-01T13:19:33.941Z,97192
2017-12-01T13:22:03.000Z,97196
2017-12-01T13:24:31.289Z,97197
2017-12-01T13:26:59.499Z,97197
2017-12-01T13:29:27.708Z,97199
2017-12-01T13:31:55.919Z,97197
2017-12-01T13:34:24.117Z,97196
2017-12-01T13:36:53.115Z,97197
2017-12-01T13:39:21.377Z,97202
2017-12-01T13:41:50.384Z,97200
2017-12-01T13:44:18.634Z,97207
2017-12-01T13:46:46.854Z,97215
2017-12-01T13:49:15.094Z,97213
2017-12-01T13:51:44.047Z,97216
2017-12-01T13:54:12.315Z,97212
2017-12-01T13:56:40.632Z,97212
2017-12-01T13:59:08.903Z,97214
2017-12-01T14:01:37.134Z,97217
2017-12-01T14:04:05.358Z,97221
2017-12-01T14:06:33.583Z,97219
2017-12-01T14:09:01.810Z,97216
2017-12-01T14:11:30.072Z,97219
2017-12-01T14:13:58.367Z,97229
2017-12-01T14:16:26.608Z,97224
2017-12-01T14:18:54.907Z,97234
2017-12-01T14:21:23.120Z,97235
2017-12-01T14:23:52.065Z,97238
2017-12-01T14:26:20.261Z,97239
2017-12-01T14:28:48.465Z,97235
2017-12-01T14:31:16.685Z,97242
2017-12-01T14:33:44.925Z,97242
2017-12-01T14:36:13.703Z,97243
2017-12-01T14:38:41.930Z,97243
2017-12-01T14:41:10.150Z,97253
2017-12-01T14:43:39.163Z,97261
2017-12-01T14:46:07.362Z,97259
2017-12-01T14:48:35.603Z,97262
2017-12-01T14:51:03.881Z,97266
2017-12-01T14:53:32.105Z,97265
2017-12-01T14:56:00.442Z,97277
2017-12-01T14:58:28.707Z,97275
2017-12-01T15:00:57.160Z,97272
2017-12-01T15:03:25.357Z,97275
2017-12-01T15:05:54.358Z,97280
2017-12-01T15:08:22.556Z,97283
2017-12-01T15:10:50.936Z,97283
2017-12-01T15:13:19.350Z,97284
2017-12-01T15:15:47.636Z,97279
2017-12-01T15:18:15.859Z,97294
2017-12-01T15:20:44.139Z,97292
2017-12-01T15:23:12.377Z,97291
2017-12-01T15:25:41.398Z,97300
2017-12-01T15:28:10.394Z,97308
2017-12-01T15:30:38.586Z,97307
2017-12-01T15:33:06.922Z,97313
2017-12-01T15:35:35.947Z,97314
2017-12-01T15:38:04.295Z,97320
2017-12-01T15:40:33.327Z,97330
2017-12-01T15:43:01.596Z,97330
2017-12-01T15:45:29.862Z,97330
2017-12-01T15:47:58.312Z,97334
2017-12-01T15:50:26.649Z,97335
2017-12-01T15:52:55.030Z,97338
2017-12-01T15:55:23.291Z,97336
2017-12-01T15:57:51.709Z,97335
2017-12-01T16:00:20.440Z,97335
2017-12-01T16:02:48.741Z,97333
2017-12-01T16:05:17.027Z,97332
2017-12-01T16:07:45.320Z,97336
2017-12-01T16:10:13.669Z,97342
2017-12-01T16:12:41.949Z,97338
2017-12-01T16:15:10.266Z,97341
2017-12-01T16:17:38.575Z,97341
2017-12-01T16:20:07.645Z,97344
2017-12-01T16:22:35.949Z,97349
2017-12-01T16:25:05.045Z,97348
2017-12-01T17:21:06.975Z,97383
2017-12-01T17:23:36.002Z,97386
2017-12-01T17:26:04.315Z,97392
2017-12-01T17:28:32.612Z,97393
2017-12-01T17:31:00.876Z,97396
2017-12-01T17:33:29.110Z,97400
2017-12-01T17:35:57.427Z,97399
2017-12-01T17:38:25.698Z,97399
2017-12-01T17:40:53.934Z,97399
2017-12-01T17:43:22.331Z,97409
2017-12-01T17:45:50.605Z,97403
2017-12-01T17:48:19.050Z,97408
2017-12-01T17:50:48.290Z,97407
2017-12-01T17:53:16.608Z,97408
2017-12-01T17:55:44.849Z,97414
2017-12-01T17:58:13.109Z,97416
2017-12-01T18:00:41.468Z,97421
2017-12-01T18:03:09.749Z,97424
2017-12-01T18:05:37.982Z,97422
2017-12-01T18:08:06.287Z,97421
2017-12-01T18:10:35.283Z,97427
2017-12-01T18:13:04.312Z,97437
2017-12-01T18:15:32.545Z,97437
2017-12-01T18:18:01.713Z,97441
2017-12-01T18:20:29.985Z,97441
2017-12-01T18:22:58.240Z,97438
2017-12-01T18:25:27.415Z,97450
2017-12-01T18:27:55.799Z,97450
2017-12-01T18:30:24.018Z,97447
2017-12-01T18:32:52.217Z,97446
2017-12-01T18:35:20.502Z,97452
2017-12-01T18:37:49.546Z,97454
2017-12-01T18:40:17.736Z,97452
2017-12-01T18:42:46.902Z,97458
2017-12-01T18:45:15.100Z,97466
2017-12-01T18:47:43.374Z,97472
2017-12-01T18:50:11.595Z,97467
2017-12-01T18:52:40.578Z,97473
2017-12-01T18:55:08.853Z,97464
2017-12-01T18:57:37.075Z,97478
2017-12-01T19:00:05.337Z,97480
2017-12-01T19:02:33.527Z,97485
2017-12-01T19:05:02.933Z,97490
2017-12-01T19:07:31.172Z,97495
2017-12-01T19:10:00.214Z,97491
2017-12-01T19:12:28.557Z,97498
2017-12-01T19:14:56.800Z,97502
2017-12-01T19:17:25.072Z,97503
2017-12-01T19:19:53.394Z,97507
2017-12-01T19:22:21.688Z,97505
2017-12-01T19:24:49.953Z,97508
2017-12-01T19:27:18.271Z,97518
2017-12-01T19:29:46.506Z,97519
2017-12-01T19:32:14.887Z,97518
2017-12-01T19:34:43.137Z,97521
2017-12-01T19:37:12.159Z,97525
2017-12-01T19:39:40.552Z,97527
2017-12-01T19:42:08.831Z,97530
2017-12-01T19:44:37.083Z,97533
2017-12-01T19:47:05.379Z,97528
2017-12-01T19:49:33.608Z,97523
2017-12-01T19:52:01.809Z,97528
2017-12-01T19:54:30.047Z,97527
2017-12-01T19:56:58.367Z,97531
2017-12-01T19:59:26.592Z,97533
2017-12-01T20:01:54.835Z,97535
2017-12-01T20:04:23.043Z,97545
2017-12-01T20:06:51.240Z,97551
2017-12-01T20:09:19.492Z,97552
2017-12-01T20:11:47.716Z,97554
2017-12-01T20:14:16.733Z,97558
2017-12-01T20:16:45.235Z,97558
2017-12-01T20:19:13.443Z,97565
2017-12-01T20:21:41.758Z,97563
2017-12-01T20:24:09.982Z,97563
2017-12-01T20:26:38.304Z,97565
2017-12-01T20:29:06.497Z,97572
2017-12-01T20:31:34.704Z,97574
2017-12-01T20:34:03.007Z,97575
2017-12-01T20:36:31.185Z,97572
2017-12-01T20:39:00.260Z,97576
2017-12-01T20:41:28.494Z,97571
2017-12-01T20:43:56.753Z,97580
2017-12-01T20:46:25.000Z,97579
2017-12-01T20:48:53.180Z,97575
2017-12-01T20:51:22.178Z,97577
2017-12-01T20:53:51.201Z,97577
2017-12-01T20:56:19.457Z,97581
2017-12-01T20:58:48.454Z,97581
2017-12-01T21:01:17.457Z,97585
2017-12-01T21:03:45.695Z,97580
2017-12-01T21:06:13.938Z,97581
2017-12-01T21:08:42.248Z,97582
2017-12-01T21:11:10.499Z,97577
2017-12-01T21:13:38.731Z,97586
2017-12-01T21:16:06.932Z,97584
2017-12-01T21:18:35.119Z,97587
2017-12-01T21:21:03.337Z,97589
2017-12-01T21:23:31.597Z,97592
2017-12-01T21:25:59.873Z,97593
2017-12-01T21:28:28.111Z,97588
2017-12-01T21:30:56.330Z,97589
2017-12-01T21:33:24.570Z,97585
2017-12-01T21:35:52.842Z,97586
2017-12-01T21:38:21.071Z,97583
2017-12-01T21:40:49.403Z,97589
2017-12-01T21:43:17.632Z,97585
2017-12-01T21:45:46.627Z,97593
2017-12-01T21:48:15.648Z,97594
2017-12-01T21:50:43.850Z,97583
2017-12-01T21:53:12.109Z,97595
2017-12-01T21:55:40.351Z,97596
2017-12-01T21:58:08.595Z,97602
2017-12-01T22:00:36.821Z,97610
2017-12-01T22:03:05.105Z,97605
2017-12-01T22:05:33.385Z,97602
2017-12-01T22:08:01.604Z,97603
2017-12-01T22:10:29.808Z,97606
2017-12-01T22:12:58.804Z,97610
2017-12-01T22:15:27.763Z,97613
2017-12-01T22:17:56.041Z,97619
2017-12-01T22:20:24.334Z,97621
2017-12-01T22:22:52.576Z,97619
2017-12-01T22:25:20.794Z,97618
2017-12-01T22:27:49.937Z,97621
2017-12-01T22:30:18.153Z,97627
2017-12-01T22:32:46.462Z,97622
2017-12-01T22:35:14.680Z,97617
2017-12-01T22:37:43.010Z,97621
2017-12-01T22:40:11.998Z,97621
2017-12-01T22:42:41.030Z,97608
2017-12-01T22:45:09.215Z,97602
2017-12-01T22:47:37.475Z,97600
2017-12-01T22:50:05.693Z,97598
2017-12-01T22:52:33.928Z,97593
2017-12-01T22:55:02.204Z,97594
2017-12-01T22:57:30.406Z,97595
2017-12-01T22:59:58.634Z,97598
2017-12-01T23:02:27.696Z,97599
2017-12-01T23:04:55.908Z,97602
2017-12-01T23:07:24.142Z,97594
2017-12-01T23:09:52.342Z,97589
2017-12-01T23:12:21.308Z,97582
2017-12-01T23:14:49.491Z,97584
2017-12-01T23:17:17.721Z,97586
2017-12-01T23:19:45.951Z,97590
2017-12-01T23:22:14.186Z,97585
2017-12-01T23:24:42.411Z,97588
2017-12-01T23:27:10.669Z,97586
2017-12-01T23:29:38.901Z,97584
2017-12-01T23:32:07.125Z,97588
2017-12-01T23:34:35.443Z,97591
2017-12-01T23:37:03.667Z,97584
2017-12-01T23:39:31.948Z,97593
2017-12-01T23:42:00.227Z,97591
2017-12-01T23:44:28.442Z,97595
2017-12-01T23:46:56.666Z,97590
2017-12-01T23:49:24.923Z,97590
2017-12-01T23:51:53.127Z,97584
2017-12-01T23:54:21.385Z,97578
2017-12-01T23:56:49.603Z,97576
2017-12-01T23:59:18.605Z,97579
